Time;durP1;ratioP1;P1;durP2;ratioP2;P2;SDS_P1;SDS_P2;PMS_P1;PMS_P2;Temp;Humidity;BMP_temperature;BMP_pressure;BME280_temperature;BME280_humidity;BME280_pressure;Samples;Min_cycle;Max_cycle;Signal;HPM_P1;HPM_P2
2023/03/03 00:00:22;;;;;;;16.97;9.37;;;6.50;80.80;;;;;;4990910;28;20210;-68
2023/03/03 00:02:51;;;;;;;13.97;8.03;;;6.50;80.80;;;;;;4986564;28;20210;-68
2023/03/03 00:05:19;;;;;;;12.47;7.50;;;6.50;80.70;;;;;;4989994;28;20794;-67
2023/03/03 00:07:46;;;;;;;11.30;7.13;;;6.50;80.60;;;;;;4987222;28;20263;-69
2023/03/03 00:10:18;;;;;;;11.27;7.00;;;6.60;80.50;;;;;;4985161;28;20290;-69
2023/03/03 00:12:48;;;;;;;10.37;6.60;;;6.60;80.30;;;;;;4983771;28;20551;-68
2023/03/03 00:15:17;;;;;;;12.73;7.87;;;6.60;80.30;;;;;;4989071;28;20556;-68
2023/03/03 00:17:44;;;;;;;11.93;7.70;;;6.60;80.40;;;;;;4991306;28;20265;-68
2023/03/03 00:20:34;;;;;;;14.57;7.87;;;6.60;80.20;;;;;;4988777;28;20216;-68
2023/03/03 00:23:15;;;;;;;12.13;7.83;;;6.60;80.10;;;;;;4984498;28;20196;-67
2023/03/03 00:25:46;;;;;;;10.60;7.10;;;6.60;80.20;;;;;;4990908;28;20702;-68
2023/03/03 00:28:26;;;;;;;9.93;6.53;;;6.60;80.20;;;;;;4991378;28;20203;-68
2023/03/03 00:30:58;;;;;;;12.90;7.97;;;6.60;80.20;;;;;;4987082;28;20294;-68
2023/03/03 00:33:41;;;;;;;13.67;8.20;;;7.40;81.10;;;;;;4990905;28;20265;-69
2023/03/03 00:36:30;;;;;;;15.30;9.00;;;6.50;81.10;;;;;;4991129;28;20274;-68
2023/03/03 00:39:16;;;;;;;10.47;6.60;;;6.50;80.40;;;;;;4986689;28;20245;-68
2023/03/03 00:41:46;;;;;;;11.63;6.97;;;6.50;80.40;;;;;;4990820;28;20292;-68
2023/03/03 00:44:38;;;;;;;10.60;6.20;;;6.50;80.60;;;;;;4979133;28;20271;-68
2023/03/03 00:47:25;;;;;;;8.93;6.20;;;6.40;80.60;;;;;;4979813;28;20287;-67
2023/03/03 00:49:56;;;;;;;9.47;6.07;;;6.40;80.60;;;;;;4987913;28;20248;-67
2023/03/03 00:52:27;;;;;;;9.27;5.63;;;6.40;80.90;;;;;;4989889;28;20301;-68
2023/03/03 00:54:54;;;;;;;9.20;6.13;;;6.40;80.90;;;;;;4987942;28;20210;-68
2023/03/03 00:57:24;;;;;;;11.63;7.23;;;6.40;80.80;;;;;;4990430;28;20198;-68
2023/03/03 00:59:53;;;;;;;8.77;6.07;;;6.40;80.90;;;;;;4988583;28;20399;-67
2023/03/03 01:02:20;;;;;;;8.23;5.70;;;6.40;81.00;;;;;;4991011;28;20217;-68
2023/03/03 01:04:51;;;;;;;9.43;6.23;;;6.30;81.00;;;;;;4985392;28;20282;-68
2023/03/03 01:07:24;;;;;;;9.90;5.80;;;6.30;81.20;;;;;;4983975;28;20211;-69
2023/03/03 01:09:57;;;;;;;7.13;4.93;;;6.30;81.40;;;;;;4978525;28;20248;-68
2023/03/03 01:12:25;;;;;;;9.27;6.00;;;6.30;81.30;;;;;;4982439;28;20213;-68
2023/03/03 01:14:56;;;;;;;8.17;5.30;;;6.30;81.30;;;;;;4980777;28;20563;-68
2023/03/03 01:17:24;;;;;;;8.87;5.57;;;6.20;81.40;;;;;;4988191;28;20216;-68
2023/03/03 01:19:53;;;;;;;7.80;5.10;;;6.20;81.40;;;;;;4983607;28;20295;-68
2023/03/03 01:22:20;;;;;;;8.63;5.00;;;6.20;81.70;;;;;;4979224;28;20215;-69
2023/03/03 01:24:47;;;;;;;5.97;4.50;;;6.20;81.60;;;;;;4989226;28;20225;-68
2023/03/03 01:27:14;;;;;;;8.67;5.57;;;6.50;81.90;;;;;;4989615;28;20208;-68
2023/03/03 01:29:43;;;;;;;6.43;4.60;;;6.20;81.80;;;;;;4988241;28;20203;-68
2023/03/03 01:32:11;;;;;;;7.03;4.40;;;6.20;81.90;;;;;;4989875;28;20725;-69
2023/03/03 01:34:38;;;;;;;7.10;4.80;;;6.20;81.80;;;;;;4988076;28;20202;-68
2023/03/03 01:37:08;;;;;;;5.73;4.60;;;6.20;82.30;;;;;;4993766;28;20209;-68
2023/03/03 01:39:35;;;;;;;6.87;4.77;;;6.10;82.50;;;;;;4989505;28;20234;-68
2023/03/03 01:42:03;;;;;;;6.97;4.57;;;6.10;82.40;;;;;;4991810;28;20550;-68
2023/03/03 01:44:30;;;;;;;5.13;3.90;;;6.10;82.40;;;;;;4991036;28;20510;-69
2023/03/03 01:47:07;;;;;;;5.33;3.70;;;6.10;82.60;;;;;;4993726;28;20214;-68
2023/03/03 01:49:44;;;;;;;3.73;3.37;;;6.10;82.80;;;;;;4981565;28;20209;-69
2023/03/03 01:52:21;;;;;;;3.47;3.17;;;6.10;82.90;;;;;;4989440;28;20296;-69
2023/03/03 01:54:55;;;;;;;5.40;3.23;;;6.00;82.90;;;;;;4992891;28;20347;-68
2023/03/03 01:57:27;;;;;;;4.03;3.63;;;6.10;83.10;;;;;;4993243;28;20196;-68
2023/03/03 01:59:57;;;;;;;4.27;3.23;;;6.00;83.30;;;;;;4993423;28;20199;-68
2023/03/03 02:02:27;;;;;;;3.30;2.80;;;6.00;83.40;;;;;;4992092;28;20200;-68
2023/03/03 02:04:54;;;;;;;4.93;3.63;;;6.00;83.60;;;;;;4990609;28;20224;-69
2023/03/03 02:07:28;;;;;;;4.10;3.27;;;5.90;84.60;;;;;;4983589;28;20775;-68
2023/03/03 02:09:59;;;;;;;4.33;3.43;;;5.90;84.10;;;;;;5007746;28;20237;-68
2023/03/03 02:12:31;;;;;;;3.70;3.40;;;5.90;84.40;;;;;;4985350;28;20212;-67
2023/03/03 02:14:58;;;;;;;4.10;3.00;;;5.90;84.50;;;;;;5007697;28;20243;-67
2023/03/03 02:17:27;;;;;;;4.83;3.73;;;5.90;84.90;;;;;;4992442;28;20225;-69
2023/03/03 02:20:02;;;;;;;3.80;3.40;;;5.90;85.50;;;;;;4987607;28;20210;-68
2023/03/03 02:22:36;;;;;;;4.30;3.90;;;5.90;85.90;;;;;;4987756;28;20291;-68
2023/03/03 02:25:08;;;;;;;5.00;3.97;;;5.90;86.10;;;;;;4993369;28;20246;-67
2023/03/03 02:27:37;;;;;;;4.60;3.83;;;5.90;86.70;;;;;;5005255;28;20370;-66
2023/03/03 02:30:19;;;;;;;4.43;3.57;;;5.80;86.80;;;;;;4998116;28;20205;-68
2023/03/03 02:32:46;;;;;;;5.93;4.43;;;5.80;87.10;;;;;;4983405;28;20253;-68
2023/03/03 02:35:35;;;;;;;5.00;3.80;;;5.80;87.70;;;;;;5005079;28;20212;-68
2023/03/03 02:38:14;;;;;;;4.00;3.50;;;5.80;88.00;;;;;;4985922;28;20205;-68
2023/03/03 02:40:45;;;;;;;4.80;3.60;;;5.80;88.20;;;;;;4991414;28;20206;-68
2023/03/03 02:43:18;;;;;;;4.77;3.73;;;5.80;88.60;;;;;;4988854;28;20770;-68
2023/03/03 02:45:45;;;;;;;4.60;3.70;;;5.80;88.70;;;;;;4980892;28;20574;-67
2023/03/03 02:48:13;;;;;;;5.73;4.40;;;5.80;88.90;;;;;;4989480;28;20220;-68
2023/03/03 02:50:40;;;;;;;5.80;4.57;;;5.80;89.60;;;;;;4990841;28;20192;-68
2023/03/03 02:53:07;;;;;;;6.27;4.47;;;5.80;89.90;;;;;;4988388;28;20212;-69
2023/03/03 02:55:34;;;;;;;5.63;4.27;;;5.80;90.10;;;;;;4989477;28;20663;-68
2023/03/03 02:58:01;;;;;;;6.07;4.50;;;5.80;90.10;;;;;;4988419;28;20230;-68
2023/03/03 03:00:31;;;;;;;4.73;4.23;;;5.80;90.40;;;;;;4986420;28;20405;-68
2023/03/03 03:02:59;;;;;;;4.30;3.87;;;5.70;90.50;;;;;;4985370;28;20222;-69
2023/03/03 03:05:26;;;;;;;3.67;3.37;;;5.70;90.70;;;;;;4981568;28;20208;-68
2023/03/03 03:07:56;;;;;;;5.30;4.57;;;5.80;90.80;;;;;;4989295;28;20316;-68
2023/03/03 03:10:25;;;;;;;7.77;5.30;;;5.70;90.90;;;;;;4991521;28;20272;-68
2023/03/03 03:12:53;;;;;;;6.57;5.13;;;5.70;91.30;;;;;;4978329;28;20201;-67
2023/03/03 03:15:20;;;;;;;7.10;5.27;;;5.70;91.70;;;;;;4989949;28;20294;-66
2023/03/03 03:17:49;;;;;;;5.97;4.60;;;5.70;92.00;;;;;;4998627;28;20288;-68
2023/03/03 03:20:17;;;;;;;7.47;4.93;;;5.60;92.30;;;;;;4986148;28;20210;-68
2023/03/03 03:22:45;;;;;;;8.03;5.37;;;5.60;92.60;;;;;;4996820;28;20210;-67
2023/03/03 03:25:13;;;;;;;7.63;4.50;;;5.60;92.90;;;;;;4980687;28;20634;-67
2023/03/03 03:27:40;;;;;;;6.40;4.63;;;5.60;93.10;;;;;;4986063;28;20247;-68
2023/03/03 03:30:09;;;;;;;6.77;4.53;;;5.60;93.30;;;;;;4991715;28;20660;-68
2023/03/03 03:32:36;;;;;;;7.20;5.00;;;5.50;93.60;;;;;;4997462;28;20267;-68
2023/03/03 03:35:06;;;;;;;6.90;4.73;;;5.50;94.00;;;;;;4983502;28;20508;-69
2023/03/03 03:37:33;;;;;;;7.60;5.00;;;5.60;94.30;;;;;;4984087;28;20223;-67
2023/03/03 03:40:00;;;;;;;8.17;5.10;;;5.50;94.70;;;;;;4978030;28;20192;-67
2023/03/03 03:42:28;;;;;;;6.00;4.33;;;5.50;95.00;;;;;;4986493;28;20298;-67
2023/03/03 03:44:57;;;;;;;7.70;5.50;;;5.50;95.10;;;;;;4984249;28;20569;-68
2023/03/03 03:47:24;;;;;;;8.87;5.50;;;5.50;95.40;;;;;;4988614;28;20215;-68
2023/03/03 03:49:51;;;;;;;7.87;5.20;;;5.50;95.70;;;;;;4989110;28;20211;-68
2023/03/03 03:52:24;;;;;;;7.63;4.73;;;5.60;95.80;;;;;;4989659;28;20259;-68
2023/03/03 03:54:51;;;;;;;7.87;5.30;;;5.60;96.20;;;;;;4989666;28;20290;-68
2023/03/03 03:57:25;;;;;;;5.87;4.27;;;5.60;96.30;;;;;;4988992;28;20204;-68
2023/03/03 03:59:52;;;;;;;9.00;5.23;;;5.60;96.30;;;;;;4990833;28;20219;-67
2023/03/03 04:02:19;;;;;;;6.47;4.53;;;5.70;96.50;;;;;;4990524;28;20318;-68
2023/03/03 04:04:46;;;;;;;7.67;5.07;;;5.70;96.80;;;;;;4985315;28;20675;-67
2023/03/03 04:07:13;;;;;;;5.87;4.17;;;5.70;96.70;;;;;;4987046;28;20774;-68
2023/03/03 04:09:43;;;;;;;6.80;4.80;;;5.80;96.70;;;;;;4988322;28;20310;-68
2023/03/03 04:12:11;;;;;;;6.97;5.00;;;5.80;96.90;;;;;;4980243;28;20671;-68
2023/03/03 04:14:38;;;;;;;6.40;4.73;;;5.90;97.10;;;;;;4990244;28;20228;-69
2023/03/03 04:17:05;;;;;;;5.53;4.50;;;5.80;97.00;;;;;;4989657;28;20283;-67
2023/03/03 04:19:33;;;;;;;6.30;4.50;;;5.90;97.10;;;;;;4986096;28;20659;-68
2023/03/03 04:22:00;;;;;;;8.00;4.87;;;6.00;97.40;;;;;;4987272;28;20201;-68
2023/03/03 04:24:27;;;;;;;9.10;6.10;;;5.90;97.40;;;;;;4992232;28;20262;-70
2023/03/03 04:26:57;;;;;;;7.67;5.47;;;5.90;97.70;;;;;;4986857;28;20217;-67
2023/03/03 04:29:24;;;;;;;10.40;6.17;;;5.90;97.80;;;;;;4989354;28;20208;-67
2023/03/03 04:31:52;;;;;;;8.17;5.20;;;5.90;98.10;;;;;;4989114;28;20200;-68
2023/03/03 04:34:20;;;;;;;7.10;5.03;;;5.90;98.20;;;;;;4988611;28;20687;-69
2023/03/03 04:36:48;;;;;;;9.00;6.00;;;5.90;98.30;;;;;;4988056;28;20353;-68
2023/03/03 04:39:15;;;;;;;7.20;4.83;;;5.90;98.30;;;;;;4980677;28;20197;-67
2023/03/03 04:41:43;;;;;;;8.03;5.50;;;5.90;98.50;;;;;;4989958;28;20731;-69
2023/03/03 04:44:11;;;;;;;6.17;4.43;;;5.90;98.60;;;;;;4989106;28;20208;-67
2023/03/03 04:46:38;;;;;;;5.77;4.30;;;5.90;98.60;;;;;;4988639;28;20204;-68
2023/03/03 04:49:07;;;;;;;7.87;5.50;;;6.00;98.90;;;;;;4980436;28;21039;-67
2023/03/03 04:51:35;;;;;;;7.87;5.57;;;6.00;98.90;;;;;;4988488;28;20208;-68
2023/03/03 04:54:02;;;;;;;8.30;5.50;;;6.00;98.90;;;;;;4984944;28;20215;-68
2023/03/03 04:56:31;;;;;;;6.73;4.90;;;6.00;98.90;;;;;;5004576;28;20204;-68
2023/03/03 04:58:58;;;;;;;9.10;5.67;;;6.00;99.00;;;;;;4986448;28;20219;-69
2023/03/03 05:01:27;;;;;;;10.33;6.30;;;6.00;99.00;;;;;;4989962;28;20201;-67
2023/03/03 05:03:54;;;;;;;9.47;6.13;;;6.00;99.00;;;;;;4989868;28;20196;-67
2023/03/03 05:06:21;;;;;;;10.37;5.83;;;6.00;99.10;;;;;;4988576;28;20209;-69
2023/03/03 05:08:48;;;;;;;10.13;6.03;;;6.00;99.00;;;;;;4989505;28;20308;-68
2023/03/03 05:11:15;;;;;;;6.30;4.43;;;6.00;99.20;;;;;;4992508;28;20263;-67
2023/03/03 05:13:43;;;;;;;6.73;4.63;;;6.00;99.20;;;;;;4991675;28;20686;-67
2023/03/03 05:16:10;;;;;;;7.03;5.00;;;6.00;99.20;;;;;;4993960;28;20197;-68
2023/03/03 05:18:39;;;;;;;7.13;5.03;;;6.10;99.30;;;;;;4985549;28;20188;-68
2023/03/03 05:21:07;;;;;;;8.90;6.33;;;6.20;99.30;;;;;;4993392;28;20212;-68
2023/03/03 05:23:34;;;;;;;8.60;5.70;;;6.10;99.20;;;;;;4978228;28;20715;-68
2023/03/03 05:26:01;;;;;;;8.73;5.53;;;6.10;99.30;;;;;;4985267;28;20580;-67
2023/03/03 05:28:28;;;;;;;7.20;5.40;;;6.10;99.30;;;;;;4989669;28;20230;-68
2023/03/03 05:30:55;;;;;;;8.40;5.30;;;6.10;99.30;;;;;;4984709;28;20653;-68
2023/03/03 05:33:25;;;;;;;8.57;5.90;;;6.10;99.40;;;;;;4986385;28;20194;-68
2023/03/03 05:35:58;;;;;;;8.30;5.90;;;6.10;99.40;;;;;;4994525;28;20204;-68
2023/03/03 05:38:26;;;;;;;9.93;6.00;;;6.00;99.50;;;;;;4991318;28;20239;-70
2023/03/03 05:40:53;;;;;;;9.20;6.00;;;6.10;99.70;;;;;;4994175;28;20287;-67
2023/03/03 05:43:20;;;;;;;12.43;6.07;;;6.10;99.60;;;;;;4993115;28;20210;-68
2023/03/03 05:45:47;;;;;;;10.47;6.67;;;6.10;99.70;;;;;;4993686;28;20255;-68
2023/03/03 05:48:15;;;;;;;10.57;6.27;;;6.00;99.70;;;;;;4993067;28;20200;-68
2023/03/03 05:50:42;;;;;;;9.27;5.93;;;6.00;99.80;;;;;;4993825;28;20602;-68
2023/03/03 05:53:10;;;;;;;6.03;4.60;;;6.00;99.90;;;;;;4992784;28;20212;-66
2023/03/03 05:55:37;;;;;;;8.83;5.97;;;6.00;99.80;;;;;;4993393;28;20554;-68
2023/03/03 05:58:04;;;;;;;6.43;4.93;;;6.00;99.80;;;;;;4993048;28;20201;-69
2023/03/03 06:00:31;;;;;;;8.40;5.43;;;6.10;99.80;;;;;;4993338;28;20210;-68
2023/03/03 06:02:59;;;;;;;5.67;4.80;;;6.10;99.90;;;;;;4992862;28;20215;-66
2023/03/03 06:05:26;;;;;;;6.20;4.60;;;6.10;99.70;;;;;;4991429;28;20278;-67
2023/03/03 06:07:53;;;;;;;5.50;4.43;;;6.10;99.60;;;;;;4990157;28;20304;-67
2023/03/03 06:10:21;;;;;;;7.10;4.63;;;6.20;99.70;;;;;;4991959;28;20663;-68
2023/03/03 06:12:53;;;;;;;8.00;4.83;;;6.10;99.60;;;;;;4987110;28;20205;-68
2023/03/03 06:15:21;;;;;;;6.73;4.40;;;6.20;99.60;;;;;;4992510;28;20312;-68
2023/03/03 06:17:48;;;;;;;7.63;5.13;;;6.30;99.60;;;;;;4993605;28;20192;-68
2023/03/03 06:20:15;;;;;;;8.57;5.97;;;6.30;99.60;;;;;;4990963;28;20201;-68
2023/03/03 06:22:42;;;;;;;7.77;5.10;;;6.30;99.50;;;;;;4991999;28;20554;-67
2023/03/03 06:25:10;;;;;;;8.80;5.77;;;6.30;99.50;;;;;;4991284;28;20245;-67
2023/03/03 06:27:39;;;;;;;8.00;5.73;;;6.30;99.50;;;;;;4979054;28;20337;-68
2023/03/03 06:30:07;;;;;;;7.60;5.47;;;6.30;99.60;;;;;;4987447;28;20209;-67
2023/03/03 06:32:34;;;;;;;8.10;4.73;;;6.30;99.60;;;;;;4992609;28;20300;-68
2023/03/03 06:35:01;;;;;;;7.53;4.70;;;6.30;99.60;;;;;;4982160;28;20216;-68
2023/03/03 06:37:36;;;;;;;6.93;4.60;;;6.40;99.60;;;;;;4991831;28;20193;-68
2023/03/03 06:40:03;;;;;;;5.37;4.03;;;6.40;99.50;;;;;;4990341;28;20200;-67
2023/03/03 06:42:30;;;;;;;7.07;4.70;;;6.50;99.40;;;;;;4991728;28;20204;-68
2023/03/03 06:44:59;;;;;;;6.13;4.40;;;6.50;99.60;;;;;;4990993;28;20208;-68
2023/03/03 06:47:26;;;;;;;7.67;4.97;;;6.50;99.30;;;;;;4992340;28;20203;-66
2023/03/03 06:49:55;;;;;;;6.77;4.70;;;6.50;99.10;;;;;;4987928;28;20231;-67
2023/03/03 06:52:24;;;;;;;7.63;5.13;;;6.50;99.10;;;;;;4988920;28;20197;-68
2023/03/03 06:54:54;;;;;;;5.70;4.57;;;6.60;99.10;;;;;;4989057;28;20206;-67
2023/03/03 06:57:26;;;;;;;5.80;4.30;;;6.60;99.10;;;;;;4990105;28;20219;-69
2023/03/03 06:59:57;;;;;;;7.80;5.20;;;6.60;99.00;;;;;;4983686;28;20570;-67
2023/03/03 07:02:25;;;;;;;10.33;5.00;;;6.70;99.00;;;;;;4991826;28;20201;-67
2023/03/03 07:04:56;;;;;;;6.00;4.50;;;6.70;98.80;;;;;;4988364;28;20194;-68
2023/03/03 07:07:24;;;;;;;5.80;4.23;;;6.70;98.80;;;;;;4984205;28;20198;-68
2023/03/03 07:09:54;;;;;;;3.83;3.40;;;6.80;98.70;;;;;;4990485;28;20232;-69
2023/03/03 07:12:26;;;;;;;7.30;5.00;;;6.90;98.70;;;;;;4984475;28;20569;-68
2023/03/03 07:14:58;;;;;;;6.83;4.13;;;6.90;98.50;;;;;;4988885;28;20206;-67
2023/03/03 07:17:26;;;;;;;7.30;4.93;;;7.00;98.50;;;;;;4981804;28;20227;-68
2023/03/03 07:19:54;;;;;;;5.17;4.23;;;7.00;98.30;;;;;;4986188;28;20197;-67
2023/03/03 07:22:24;;;;;;;5.80;4.37;;;7.10;98.20;;;;;;4971220;28;20280;-66
2023/03/03 07:24:53;;;;;;;8.20;4.50;;;7.10;98.00;;;;;;4970300;28;20233;-68
2023/03/03 07:27:25;;;;;;;9.10;5.10;;;7.20;98.00;;;;;;4975468;28;20205;-67
2023/03/03 07:29:54;;;;;;;7.37;4.90;;;7.20;97.80;;;;;;4972696;28;20220;-67
2023/03/03 07:32:39;;;;;;;6.57;4.67;;;7.40;97.70;;;;;;4973741;28;20713;-69
2023/03/03 07:35:31;;;;;;;6.33;4.50;;;7.30;97.50;;;;;;4966242;28;20262;-68
2023/03/03 07:37:58;;;;;;;6.40;3.80;;;7.40;97.40;;;;;;4966767;28;20226;-68
2023/03/03 07:40:35;;;;;;;5.53;4.70;;;7.50;97.30;;;;;;4967541;28;20705;-69
2023/03/03 07:43:18;;;;;;;5.23;4.20;;;7.50;97.10;;;;;;4964477;28;20203;-68
2023/03/03 07:45:47;;;;;;;8.20;5.27;;;7.60;97.10;;;;;;4968867;28;20191;-67
2023/03/03 07:48:25;;;;;;;8.80;5.10;;;7.70;96.90;;;;;;4972855;28;20200;-67
2023/03/03 07:50:52;;;;;;;6.80;4.60;;;7.80;96.70;;;;;;4967071;28;20192;-67
2023/03/03 07:53:26;;;;;;;5.10;4.00;;;7.80;96.50;;;;;;4967489;28;20220;-68
2023/03/03 07:55:54;;;;;;;4.30;3.43;;;8.00;96.50;;;;;;4966627;28;20285;-67
2023/03/03 07:58:23;;;;;;;4.13;3.40;;;8.10;96.80;;;;;;4977022;28;20209;-68
2023/03/03 15:38:26;;;;;;;2.13;1.50;;;12.20;48.40;;;;;;4653210;29;20258;-63
2023/03/03 15:41:04;;;;;;;3.47;2.20;;;12.20;48.70;;;;;;4888147;29;20638;-63
2023/03/03 15:43:38;;;;;;;3.50;2.70;;;12.10;48.90;;;;;;4893437;29;20187;-64
2023/03/03 15:46:19;;;;;;;3.63;2.83;;;12.10;49.40;;;;;;4892080;29;20195;-60
2023/03/03 15:48:59;;;;;;;2.80;1.80;;;12.10;49.70;;;;;;4877678;29;20271;-65
2023/03/03 15:51:50;;;;;;;5.10;2.90;;;12.00;49.70;;;;;;4859328;29;20203;-63
2023/03/03 15:54:36;;;;;;;4.40;2.80;;;12.00;50.20;;;;;;4865416;29;20671;-62
2023/03/03 15:57:12;;;;;;;6.23;2.93;;;11.90;50.50;;;;;;4896695;29;20242;-59
2023/03/03 16:00:15;;;;;;;4.30;2.73;;;11.80;50.70;;;;;;4896964;29;20627;-59
2023/03/03 16:02:51;;;;;;;2.90;2.40;;;11.60;51.00;;;;;;4874764;29;20322;-59
2023/03/03 16:05:23;;;;;;;5.53;2.40;;;11.60;51.00;;;;;;4897079;29;20211;-60
2023/03/03 16:07:59;;;;;;;3.67;2.47;;;11.50;51.00;;;;;;4894902;29;20222;-60
2023/03/03 16:10:38;;;;;;;4.40;2.40;;;11.50;51.30;;;;;;4879841;29;20218;-60
2023/03/03 16:13:22;;;;;;;2.50;2.30;;;11.50;51.40;;;;;;4896394;29;20195;-60
2023/03/03 16:15:59;;;;;;;6.00;2.70;;;11.50;51.30;;;;;;4895159;29;20215;-60
2023/03/03 16:18:37;;;;;;;2.90;2.43;;;11.50;51.60;;;;;;4896887;29;20225;-60
2023/03/03 16:21:20;;;;;;;5.90;3.10;;;11.50;51.80;;;;;;4894875;29;20217;-60
2023/03/03 16:23:49;;;;;;;6.83;3.20;;;11.40;52.10;;;;;;4880340;29;20231;-60
2023/03/03 16:26:32;;;;;;;5.70;3.50;;;11.40;52.30;;;;;;4896648;29;20278;-60
2023/03/03 16:29:17;;;;;;;5.23;2.83;;;11.30;52.80;;;;;;4897173;29;20184;-61
2023/03/03 16:31:51;;;;;;;6.90;3.13;;;11.30;52.90;;;;;;4896275;29;20278;-59
2023/03/03 16:34:25;;;;;;;5.13;3.07;;;11.20;53.00;;;;;;4879942;29;20342;-61
2023/03/03 16:37:01;;;;;;;4.50;3.00;;;11.20;53.00;;;;;;4894383;29;20207;-59
2023/03/03 16:39:39;;;;;;;5.50;3.30;;;11.20;53.10;;;;;;4891016;29;20306;-60
2023/03/03 16:42:20;;;;;;;7.87;3.90;;;11.20;53.40;;;;;;4895502;29;20226;-60
2023/03/03 16:44:53;;;;;;;6.20;3.60;;;11.20;53.60;;;;;;4895589;29;20203;-60
2023/03/03 16:47:37;;;;;;;8.43;4.07;;;11.10;53.60;;;;;;4894115;29;20304;-59
2023/03/03 16:50:19;;;;;;;5.10;3.03;;;11.00;53.70;;;;;;4895112;29;20207;-59
2023/03/03 16:52:53;;;;;;;4.97;3.10;;;10.90;53.60;;;;;;4892484;29;20195;-59
2023/03/03 16:55:25;;;;;;;8.60;3.50;;;10.90;53.70;;;;;;4895170;29;20206;-59
2023/03/03 16:58:08;;;;;;;8.10;3.63;;;10.90;53.90;;;;;;4894078;29;20202;-62
2023/03/03 17:00:41;;;;;;;5.03;3.33;;;10.90;54.00;;;;;;4894493;29;20350;-62
2023/03/03 17:03:32;;;;;;;7.97;4.20;;;10.90;54.10;;;;;;4894118;29;20222;-62
2023/03/03 17:06:06;;;;;;;7.20;3.60;;;10.80;54.20;;;;;;4892531;29;20195;-63
2023/03/03 17:08:48;;;;;;;12.40;4.93;;;10.70;54.20;;;;;;4894701;29;20305;-63
2023/03/03 17:11:25;;;;;;;10.37;4.63;;;10.70;54.60;;;;;;4894066;29;20245;-63
2023/03/03 17:14:29;;;;;;;9.17;5.20;;;10.60;54.70;;;;;;4894337;29;20201;-63
2023/03/03 17:16:59;;;;;;;9.27;4.87;;;10.60;55.40;;;;;;4849674;29;20238;-63
2023/03/03 17:19:48;;;;;;;7.70;4.20;;;10.40;55.50;;;;;;4882416;29;20281;-62
2023/03/03 17:22:23;;;;;;;5.50;3.87;;;10.40;55.70;;;;;;4891172;29;20201;-62
2023/03/03 17:25:04;;;;;;;7.03;4.47;;;10.30;55.90;;;;;;4894154;29;20196;-62
2023/03/03 17:27:45;;;;;;;9.40;5.00;;;10.30;56.10;;;;;;4894925;29;20294;-62
2023/03/03 17:30:20;;;;;;;10.17;5.53;;;10.20;56.30;;;;;;4891830;29;20298;-63
2023/03/03 17:33:02;;;;;;;11.50;4.97;;;10.10;56.50;;;;;;4875438;29;20657;-62
2023/03/03 17:35:53;;;;;;;10.00;5.40;;;10.00;56.90;;;;;;4874730;29;20184;-62
2023/03/03 17:38:27;;;;;;;11.80;5.40;;;9.90;58.30;;;;;;4893297;29;20234;-63
2023/03/03 17:41:02;;;;;;;13.73;5.80;;;9.80;59.30;;;;;;4895486;29;20180;-63
2023/03/03 17:43:34;;;;;;;11.30;5.57;;;9.70;59.90;;;;;;4877366;29;20675;-63
2023/03/03 17:46:09;;;;;;;12.00;5.63;;;9.50;61.00;;;;;;4884959;29;20219;-63
2023/03/03 17:49:02;;;;;;;12.70;5.70;;;10.90;61.40;;;;;;4895396;29;20206;-62
2023/03/03 17:51:53;;;;;;;9.90;4.80;;;9.30;62.40;;;;;;4893272;29;20240;-62
2023/03/03 17:54:36;;;;;;;14.87;5.80;;;9.30;63.00;;;;;;4895501;29;20581;-63
2023/03/03 17:57:17;;;;;;;11.53;5.00;;;9.20;63.70;;;;;;4877572;29;20214;-62
2023/03/03 18:00:06;;;;;;;10.20;5.60;;;9.10;63.90;;;;;;4895236;29;20185;-63
2023/03/03 18:03:08;;;;;;;11.13;5.23;;;9.10;64.60;;;;;;4893585;29;20286;-63
2023/03/03 18:05:51;;;;;;;10.40;5.70;;;9.00;65.50;;;;;;4892987;29;20307;-62
2023/03/03 18:08:45;;;;;;;10.63;5.33;;;8.90;65.90;;;;;;4890789;29;20229;-63
2023/03/03 18:11:39;;;;;;;12.00;5.40;;;8.80;66.90;;;;;;4894331;29;20220;-63
2023/03/03 18:14:30;;;;;;;9.77;5.33;;;8.80;67.10;;;;;;4894860;29;20204;-63
2023/03/03 18:17:22;;;;;;;10.20;5.63;;;8.80;68.00;;;;;;4877230;29;20596;-63
2023/03/03 18:20:12;;;;;;;14.87;6.00;;;8.70;68.00;;;;;;4894890;29;20189;-63
2023/03/03 18:22:43;;;;;;;12.23;5.97;;;8.70;68.90;;;;;;4892246;29;20286;-62
2023/03/03 18:25:14;;;;;;;13.13;6.93;;;8.70;69.30;;;;;;4878093;29;20233;-63
2023/03/03 18:27:42;;;;;;;14.27;6.63;;;8.70;69.80;;;;;;4894226;29;20280;-64
2023/03/03 18:30:25;;;;;;;14.37;6.73;;;8.70;70.50;;;;;;4894549;29;20242;-63
2023/03/03 18:33:16;;;;;;;12.17;6.20;;;8.70;70.80;;;;;;4893668;29;20183;-62
2023/03/03 18:35:48;;;;;;;15.80;6.70;;;8.60;71.10;;;;;;4894041;29;20212;-63
2023/03/03 18:38:33;;;;;;;12.23;6.57;;;8.60;71.70;;;;;;4892435;29;20233;-63
2023/03/03 18:41:01;;;;;;;12.50;6.60;;;8.50;71.90;;;;;;4894369;29;20601;-63
2023/03/03 18:43:53;;;;;;;12.07;6.27;;;8.60;72.60;;;;;;4894332;29;20195;-63
2023/03/03 18:47:03;;;;;;;12.97;6.10;;;8.50;72.70;;;;;;4894177;29;20581;-63
2023/03/03 18:49:51;;;;;;;12.00;6.33;;;8.50;72.80;;;;;;4884358;29;20229;-62
2023/03/03 18:52:22;;;;;;;14.43;6.60;;;8.50;73.50;;;;;;4895305;29;20203;-63
2023/03/03 18:55:04;;;;;;;12.37;6.53;;;8.50;73.60;;;;;;4898451;29;20668;-63
2023/03/03 18:57:32;;;;;;;9.77;6.00;;;8.50;73.80;;;;;;4897499;29;20192;-62
2023/03/03 19:00:14;;;;;;;10.90;6.27;;;8.50;74.00;;;;;;4898432;29;20200;-63
2023/03/03 19:02:54;;;;;;;10.43;6.00;;;8.50;74.10;;;;;;4896885;29;20193;-62
2023/03/03 19:05:23;;;;;;;8.10;5.53;;;8.50;74.00;;;;;;4898080;29;20258;-62
2023/03/03 19:07:59;;;;;;;10.07;5.83;;;8.60;74.00;;;;;;4895719;29;20197;-63
2023/03/03 19:10:55;;;;;;;9.90;5.80;;;8.60;73.90;;;;;;4881353;29;20216;-63
2023/03/03 19:13:48;;;;;;;14.70;6.57;;;8.70;74.10;;;;;;4875076;29;20806;-63
2023/03/03 19:16:36;;;;;;;11.37;6.43;;;8.70;74.20;;;;;;4897659;29;20186;-63
2023/03/03 19:19:14;;;;;;;6.97;4.73;;;8.60;74.00;;;;;;4897005;29;20796;-63
2023/03/03 19:21:43;;;;;;;7.70;4.97;;;8.60;74.20;;;;;;4894207;29;20200;-63
2023/03/03 19:24:33;;;;;;;7.13;4.80;;;8.60;74.40;;;;;;4897704;29;20197;-62
2023/03/03 19:27:24;;;;;;;7.17;4.63;;;8.50;74.30;;;;;;4893789;29;20212;-63
2023/03/03 19:30:21;;;;;;;7.90;5.13;;;8.50;74.50;;;;;;4891113;29;20192;-62
2023/03/03 19:33:24;;;;;;;9.63;5.53;;;8.50;74.60;;;;;;4896449;29;20712;-63
2023/03/03 19:36:05;;;;;;;8.90;5.07;;;8.50;74.60;;;;;;4892766;29;20203;-62
2023/03/03 19:38:41;;;;;;;8.80;4.77;;;8.50;74.70;;;;;;4895827;29;20235;-62
2023/03/03 19:41:22;;;;;;;6.47;4.57;;;8.50;74.80;;;;;;4880885;29;20212;-63
2023/03/03 19:44:01;;;;;;;8.73;4.30;;;8.40;74.70;;;;;;4878935;29;20194;-63
2023/03/03 19:46:50;;;;;;;12.13;6.17;;;8.40;74.70;;;;;;4890682;29;20191;-62
2023/03/03 19:49:37;;;;;;;9.00;5.13;;;8.40;75.30;;;;;;4897653;29;20187;-62
2023/03/03 19:52:08;;;;;;;7.67;4.73;;;8.30;75.40;;;;;;4889822;29;20254;-63
2023/03/03 19:54:51;;;;;;;6.77;4.60;;;8.20;75.90;;;;;;4897904;29;20181;-63
2023/03/03 19:57:36;;;;;;;5.97;3.87;;;8.20;76.00;;;;;;4897129;29;20246;-63
2023/03/03 20:00:09;;;;;;;9.10;4.57;;;8.20;76.20;;;;;;4897626;29;20183;-62
2023/03/03 20:02:52;;;;;;;10.17;4.73;;;8.10;76.50;;;;;;4895764;29;20236;-63
2023/03/03 20:05:24;;;;;;;5.50;3.80;;;8.00;76.50;;;;;;4897677;29;20184;-63
2023/03/03 20:07:58;;;;;;;8.90;3.50;;;8.00;76.70;;;;;;4895269;29;20345;-63
2023/03/03 20:10:48;;;;;;;4.83;3.57;;;7.90;76.70;;;;;;4897611;29;20549;-63
2023/03/03 20:13:43;;;;;;;7.80;4.67;;;8.00;76.90;;;;;;4896312;29;20563;-63
2023/03/03 20:16:25;;;;;;;11.33;5.43;;;8.00;77.20;;;;;;4897434;29;20184;-63
2023/03/03 20:19:02;;;;;;;7.77;3.87;;;7.90;77.60;;;;;;4896387;29;20534;-62
2023/03/03 20:21:35;;;;;;;4.73;3.60;;;7.80;77.80;;;;;;4896422;29;20183;-63
2023/03/03 20:24:36;;;;;;;9.47;4.03;;;7.80;78.10;;;;;;4895984;29;20210;-63
2023/03/03 20:27:08;;;;;;;5.47;4.03;;;7.80;78.60;;;;;;4896815;29;20286;-64
2023/03/03 20:30:02;;;;;;;5.13;3.87;;;7.80;79.00;;;;;;4897492;29;20197;-63
2023/03/03 20:32:39;;;;;;;5.33;3.87;;;7.70;79.10;;;;;;4876931;29;20192;-62
2023/03/03 20:35:15;;;;;;;8.30;4.57;;;7.70;79.10;;;;;;4878753;29;20544;-62
2023/03/03 20:37:50;;;;;;;9.23;4.10;;;7.80;79.40;;;;;;4876209;29;20191;-63
2023/03/03 20:40:29;;;;;;;9.83;4.37;;;7.80;79.50;;;;;;4878420;29;20230;-62
2023/03/03 20:43:05;;;;;;;6.03;3.60;;;7.70;79.40;;;;;;4890784;29;20342;-63
2023/03/03 20:45:47;;;;;;;4.77;3.57;;;7.60;79.30;;;;;;4896764;29;20579;-63
2023/03/03 20:48:31;;;;;;;8.13;3.60;;;7.60;79.40;;;;;;4896229;29;20194;-63
2023/03/03 20:51:04;;;;;;;7.10;3.67;;;7.50;79.50;;;;;;4896160;29;20207;-63
2023/03/03 20:53:43;;;;;;;4.90;3.90;;;7.50;79.70;;;;;;4895389;29;20234;-63
2023/03/03 20:56:19;;;;;;;3.70;3.33;;;7.40;79.90;;;;;;4896467;29;20534;-62
2023/03/03 20:59:00;;;;;;;5.27;3.50;;;7.40;80.10;;;;;;4896183;29;20664;-63
2023/03/03 21:01:35;;;;;;;6.73;4.03;;;7.40;80.20;;;;;;4896501;29;20193;-62
2023/03/03 21:04:22;;;;;;;9.40;3.60;;;7.30;80.50;;;;;;4895093;29;20183;-62
2023/03/03 21:06:50;;;;;;;6.60;4.00;;;7.40;80.70;;;;;;4894532;29;20240;-63